createdAt,value
2022-10-23T00:09:30.453Z,76.84
2022-10-23T00:19:57.692Z,76.93
2022-10-23T00:30:25.019Z,76.73
2022-10-23T00:40:52.539Z,76.50
2022-10-23T00:51:20.235Z,76.50
2022-10-23T01:01:48.438Z,76.50
2022-10-23T01:12:17.505Z,76.31
2022-10-23T01:23:04.600Z,76.28
2022-10-23T01:33:38.751Z,76.22
2022-10-23T01:44:13.088Z,76.32
2022-10-23T01:54:43.633Z,76.28
2022-10-23T02:05:15.538Z,75.89
2022-10-23T02:15:50.016Z,75.17
2022-10-23T02:26:20.703Z,74.31
2022-10-23T02:36:48.319Z,75.28
2022-10-23T02:47:28.554Z,75.46
2022-10-23T02:58:04.273Z,74.71
2022-10-23T03:08:31.618Z,74.32
2022-10-23T03:18:58.980Z,73.76
2022-10-23T03:29:26.469Z,73.17
2022-10-23T03:39:53.919Z,73.49
2022-10-23T03:50:21.788Z,73.29
2022-10-23T04:00:49.158Z,73.04
2022-10-23T04:11:16.451Z,72.82
2022-10-23T04:21:43.876Z,72.30
2022-10-23T04:32:11.258Z,72.19
2022-10-23T04:42:38.613Z,72.03
2022-10-23T04:53:05.948Z,71.93
2022-10-23T05:03:33.218Z,71.82
2022-10-23T05:14:00.537Z,72.26
2022-10-23T05:24:28.431Z,73.08
2022-10-23T05:34:56.631Z,73.99
2022-10-23T05:45:23.958Z,74.77
2022-10-23T05:55:51.282Z,75.39
2022-10-23T06:06:18.657Z,75.79
2022-10-23T06:16:46.132Z,76.07
2022-10-23T06:27:13.354Z,76.39
2022-10-23T06:37:40.553Z,76.78
2022-10-23T06:48:08.365Z,77.22
2022-10-23T06:58:37.236Z,77.67
2022-10-23T07:09:04.656Z,77.99
2022-10-23T07:19:32.006Z,78.18
2022-10-23T07:30:00.330Z,78.30
2022-10-23T07:40:28.761Z,78.49
2022-10-23T07:50:58.709Z,78.72
2022-10-23T08:01:30.375Z,79.13
2022-10-23T08:11:57.679Z,78.98
2022-10-23T08:22:25.041Z,79.10
2022-10-23T08:32:52.389Z,79.05
2022-10-23T08:43:25.614Z,78.99
2022-10-23T08:53:58.882Z,78.98
2022-10-23T09:04:26.493Z,78.88
2022-10-23T09:15:11.965Z,78.35
2022-10-23T09:25:41.182Z,78.08
2022-10-23T09:36:19.137Z,77.89
2022-10-23T09:46:48.405Z,77.69
2022-10-23T09:57:24.670Z,77.96
2022-10-23T10:07:59.965Z,77.50
2022-10-23T10:18:37.632Z,76.51
2022-10-23T10:29:15.832Z,75.90
2022-10-23T10:39:50.056Z,75.08
2022-10-23T10:50:25.129Z,74.55
2022-10-23T11:00:57.174Z,73.88
2022-10-23T11:11:30.050Z,73.27
2022-10-23T11:22:03.453Z,72.55
2022-10-23T11:32:47.529Z,72.02
2022-10-23T11:43:14.786Z,72.13
2022-10-23T11:53:43.073Z,71.91
2022-10-23T12:04:24.012Z,71.38
2022-10-23T12:14:52.509Z,71.48
2022-10-23T12:25:25.674Z,71.15
2022-10-23T12:36:22.873Z,70.68
2022-10-23T12:46:52.254Z,69.98
2022-10-23T12:57:23.863Z,69.11
2022-10-23T13:07:52.318Z,68.73
2022-10-23T13:18:20.688Z,68.46
2022-10-23T13:28:48.719Z,68.21
2022-10-23T13:39:17.320Z,67.49
2022-10-23T13:49:44.679Z,67.22
2022-10-23T14:00:15.217Z,67.37
2022-10-23T14:10:42.786Z,67.34
2022-10-23T14:21:09.297Z,67.08
2022-10-23T14:31:36.777Z,67.10
2022-10-23T14:42:05.721Z,67.24
2022-10-23T14:52:33.290Z,67.47
2022-10-23T15:03:00.887Z,67.65
2022-10-23T15:13:28.378Z,67.92
2022-10-23T15:23:55.919Z,67.90
2022-10-23T15:34:22.787Z,67.82
2022-10-23T15:44:50.156Z,67.69
2022-10-23T15:55:17.669Z,67.53
2022-10-23T16:05:45.155Z,67.50
2022-10-23T16:16:12.648Z,67.23
2022-10-23T16:26:40.302Z,66.88
2022-10-23T16:37:07.731Z,66.92
2022-10-23T16:47:35.685Z,67.25
2022-10-23T16:58:03.882Z,67.03
2022-10-23T17:08:32.401Z,66.90
2022-10-23T17:19:00.209Z,66.95
2022-10-23T17:29:27.623Z,67.03
2022-10-23T17:39:56.344Z,67.21
2022-10-23T17:50:24.417Z,67.30
2022-10-23T18:00:52.839Z,67.30
2022-10-23T18:11:22.143Z,67.44
2022-10-23T18:21:50.214Z,67.39
2022-10-23T18:32:16.026Z,67.40
2022-10-23T18:42:43.709Z,67.38
2022-10-23T18:53:09.802Z,67.44
2022-10-23T19:03:37.163Z,67.16
2022-10-23T19:14:04.636Z,67.25
2022-10-23T19:24:38.162Z,66.98
2022-10-23T19:35:06.032Z,66.76
2022-10-23T19:45:33.351Z,66.33
2022-10-23T19:56:06.980Z,66.83
2022-10-23T20:06:37.147Z,66.92
2022-10-23T20:17:05.196Z,66.48
2022-10-23T20:27:32.501Z,66.13
2022-10-23T20:37:59.878Z,66.49
2022-10-23T20:48:27.341Z,66.24
2022-10-23T20:58:54.651Z,65.82
2022-10-23T21:09:22.169Z,65.60
2022-10-23T21:19:49.650Z,65.87
2022-10-23T21:30:17.025Z,65.94
2022-10-23T21:40:44.513Z,65.42
2022-10-23T21:51:23.171Z,65.35
2022-10-23T22:01:51.741Z,65.39
2022-10-23T22:12:19.352Z,65.34
2022-10-23T22:22:46.670Z,65.49
2022-10-23T22:33:14.033Z,65.26
2022-10-23T22:43:41.492Z,65.51
2022-10-23T22:54:09.516Z,65.53
2022-10-23T23:04:38.195Z,65.33
2022-10-23T23:15:07.110Z,65.57
2022-10-23T23:25:32.893Z,65.61
2022-10-23T23:36:00.330Z,65.47
2022-10-23T23:46:27.900Z,65.27
2022-10-23T23:56:59.962Z,65.34
